createdAt,value
2019-03-20T00:00:46.091Z,10.30
2019-03-20T00:03:13.751Z,6.30
2019-03-20T00:05:41.915Z,6.53
2019-03-20T00:08:10.135Z,4.97
2019-03-20T00:10:37.787Z,6.10
2019-03-20T00:13:06.134Z,9.77
2019-03-20T00:15:33.781Z,8.07
2019-03-20T00:18:01.513Z,6.40
2019-03-20T00:20:29.439Z,6.70
2019-03-20T00:22:57.409Z,7.50
2019-03-20T00:25:25.146Z,8.20
2019-03-20T00:27:53.504Z,5.63
2019-03-20T00:30:21.738Z,7.07
2019-03-20T00:32:49.672Z,4.93
2019-03-20T00:35:17.342Z,7.83
2019-03-20T00:37:45.922Z,8.00
2019-03-20T00:40:14.302Z,7.30
2019-03-20T00:42:41.948Z,5.70
2019-03-20T00:45:10.437Z,8.43
2019-03-20T00:47:38.118Z,11.80
2019-03-20T00:50:06.994Z,9.80
2019-03-20T00:52:35.272Z,6.43
2019-03-20T00:55:03.286Z,7.30
2019-03-20T00:57:31.578Z,7.47
2019-03-20T00:59:59.321Z,6.83
2019-03-20T01:02:27.281Z,8.30
2019-03-20T01:04:55.497Z,9.43
2019-03-20T01:07:24.030Z,9.17
2019-03-20T01:09:52.365Z,13.07
2019-03-20T01:12:20.658Z,7.13
2019-03-20T01:14:48.317Z,7.33
2019-03-20T01:17:16.231Z,8.53
2019-03-20T01:19:44.134Z,8.17
2019-03-20T01:22:12.314Z,6.60
2019-03-20T01:24:40.320Z,9.67
2019-03-20T01:27:08.822Z,9.00
2019-03-20T01:29:36.789Z,8.83
2019-03-20T01:32:04.437Z,9.80
2019-03-20T01:34:32.702Z,7.50
2019-03-20T01:37:00.617Z,12.37
2019-03-20T01:39:28.572Z,8.33
2019-03-20T01:41:56.909Z,9.90
2019-03-20T01:44:25.098Z,10.03
2019-03-20T01:46:53.397Z,8.13
2019-03-20T01:49:21.024Z,8.90
2019-03-20T01:51:48.962Z,8.07
2019-03-20T01:54:16.604Z,10.13
2019-03-20T01:56:44.584Z,6.87
2019-03-20T01:59:12.800Z,7.17
2019-03-20T02:01:41.417Z,10.67
2019-03-20T02:04:09.620Z,9.03
2019-03-20T02:06:37.453Z,9.00
2019-03-20T02:09:06.396Z,8.80
2019-03-20T02:11:34.602Z,6.73
2019-03-20T02:14:02.278Z,10.53
2019-03-20T02:16:30.342Z,7.77
2019-03-20T02:18:58.399Z,7.50
2019-03-20T02:21:26.061Z,6.10
2019-03-20T02:23:53.978Z,7.03
2019-03-20T02:26:21.633Z,8.43
2019-03-20T02:28:49.649Z,6.97
2019-03-20T02:31:18.030Z,11.93
2019-03-20T02:33:46.198Z,8.90
2019-03-20T02:36:13.829Z,8.63
2019-03-20T02:38:41.750Z,6.90
2019-03-20T02:41:09.462Z,8.10
2019-03-20T02:43:37.372Z,7.50
2019-03-20T02:46:05.431Z,6.57
2019-03-20T02:48:33.953Z,7.03
2019-03-20T02:51:01.918Z,5.67
2019-03-20T02:53:29.584Z,6.90
2019-03-20T02:55:57.923Z,9.50
2019-03-20T02:58:26.208Z,6.57
2019-03-20T03:00:54.236Z,7.63
2019-03-20T03:03:22.834Z,7.03
2019-03-20T03:06:05.621Z,6.77
2019-03-20T03:08:20.709Z,10.73
2019-03-20T03:10:48.650Z,7.57
2019-03-20T03:13:16.650Z,7.30
2019-03-20T03:15:44.631Z,7.30
2019-03-20T03:18:12.582Z,7.63
2019-03-20T03:20:40.557Z,9.63
2019-03-20T03:23:08.211Z,5.60
2019-03-20T03:25:36.199Z,7.50
2019-03-20T03:28:04.146Z,7.30
2019-03-20T03:30:31.870Z,8.60
2019-03-20T03:32:59.821Z,6.67
2019-03-20T03:35:27.478Z,7.10
2019-03-20T03:37:55.663Z,9.90
2019-03-20T03:40:23.593Z,7.97
2019-03-20T03:42:51.527Z,8.33
2019-03-20T03:45:19.296Z,10.20
2019-03-20T03:47:47.952Z,7.60
2019-03-20T03:50:15.693Z,7.23
2019-03-20T03:52:43.647Z,8.00
2019-03-20T03:55:11.962Z,5.47
2019-03-20T03:57:39.638Z,13.90
2019-03-20T04:00:08.306Z,7.10
2019-03-20T04:02:36.666Z,10.53
2019-03-20T04:05:05.055Z,7.47
2019-03-20T04:07:33.753Z,9.43
2019-03-20T04:10:01.791Z,9.40
2019-03-20T04:12:30.058Z,7.97
2019-03-20T04:14:58.370Z,6.80
2019-03-20T04:17:27.155Z,9.57
2019-03-20T04:19:55.408Z,7.87
2019-03-20T04:22:23.346Z,8.07
2019-03-20T04:24:51.062Z,11.20
2019-03-20T04:27:19.066Z,10.00
2019-03-20T04:29:47.383Z,7.10
2019-03-20T04:32:15.026Z,8.70
2019-03-20T04:34:43.263Z,6.93
2019-03-20T04:37:10.933Z,6.70
2019-03-20T04:39:38.665Z,9.77
2019-03-20T04:42:06.685Z,10.37
2019-03-20T04:44:34.689Z,7.07
2019-03-20T04:47:02.341Z,7.70
2019-03-20T04:49:30.266Z,11.27
2019-03-20T04:51:57.936Z,9.10
2019-03-20T04:54:26.182Z,9.47
2019-03-20T04:56:54.675Z,8.00
2019-03-20T04:59:22.343Z,7.13
2019-03-20T05:01:50.490Z,5.00
2019-03-20T05:04:18.436Z,7.87
2019-03-20T05:06:46.356Z,7.73
2019-03-20T05:09:14.073Z,7.50
2019-03-20T05:11:42.557Z,8.70
2019-03-20T05:14:12.453Z,7.87
2019-03-20T05:16:41.002Z,13.30
2019-03-20T05:19:09.291Z,10.27
2019-03-20T05:21:37.334Z,7.53
2019-03-20T05:24:05.344Z,9.47
2019-03-20T05:26:33.562Z,7.17
2019-03-20T05:29:01.932Z,8.63
2019-03-20T05:31:29.968Z,12.53
2019-03-20T05:33:58.009Z,8.40
2019-03-20T05:36:26.013Z,6.03
2019-03-20T05:38:53.961Z,8.00
2019-03-20T05:41:21.981Z,6.87
2019-03-20T05:43:49.928Z,7.40
2019-03-20T05:46:17.943Z,6.50
2019-03-20T05:48:45.593Z,8.00
2019-03-20T05:51:13.879Z,8.03
2019-03-20T05:53:41.546Z,12.23
2019-03-20T05:56:09.489Z,9.90
2019-03-20T05:58:37.117Z,8.53
2019-03-20T06:01:05.551Z,9.40
2019-03-20T06:03:33.825Z,14.23
2019-03-20T06:06:02.489Z,9.10
2019-03-20T06:08:31.357Z,10.27
2019-03-20T06:10:59.790Z,8.73
2019-03-20T06:13:28.015Z,7.63
2019-03-20T06:15:55.685Z,7.10
2019-03-20T06:18:23.616Z,7.73
2019-03-20T06:20:51.554Z,11.23
2019-03-20T06:23:19.589Z,6.20
2019-03-20T06:25:47.908Z,9.57
2019-03-20T06:28:15.830Z,11.83
2019-03-20T06:30:43.815Z,9.97
2019-03-20T06:33:11.773Z,6.90
2019-03-20T06:35:39.441Z,8.57
2019-03-20T06:38:07.648Z,15.13
2019-03-20T06:40:35.309Z,8.20
2019-03-20T06:43:03.674Z,8.70
2019-03-20T06:45:31.980Z,10.17
2019-03-20T06:47:59.939Z,10.70
2019-03-20T06:50:27.861Z,7.90
2019-03-20T06:52:55.844Z,7.33
2019-03-20T06:55:24.040Z,10.20
2019-03-20T06:57:51.702Z,11.20
2019-03-20T07:00:41.612Z,9.37
2019-03-20T07:03:11.293Z,8.00
2019-03-20T07:06:13.912Z,8.80
2019-03-20T07:08:44.105Z,13.20
2019-03-20T07:11:12.276Z,9.70
2019-03-20T07:13:40.205Z,9.87
2019-03-20T07:16:08.442Z,9.63
2019-03-20T07:18:36.126Z,10.60
2019-03-20T07:21:04.521Z,10.47
2019-03-20T07:23:32.457Z,8.23
2019-03-20T07:26:01.012Z,5.80
2019-03-20T07:28:28.682Z,9.33
2019-03-20T07:30:57.086Z,13.17
2019-03-20T07:33:24.750Z,9.53
2019-03-20T07:35:54.134Z,7.10
2019-03-20T07:38:22.258Z,11.53
2019-03-20T07:40:49.968Z,10.73
2019-03-20T07:43:17.793Z,14.13
2019-03-20T07:45:46.102Z,12.97
2019-03-20T07:48:22.083Z,8.23
2019-03-20T07:50:44.061Z,12.67
2019-03-20T07:53:12.012Z,9.47
2019-03-20T07:55:39.923Z,15.63
2019-03-20T07:58:08.096Z,7.77
2019-03-20T08:00:36.644Z,14.30
2019-03-20T08:03:04.958Z,7.83
2019-03-20T08:05:33.237Z,9.20
2019-03-20T08:08:07.242Z,9.83
2019-03-20T08:10:30.889Z,10.00
2019-03-20T08:13:02.413Z,10.23
2019-03-20T08:15:30.384Z,8.13
2019-03-20T08:17:58.369Z,8.57
2019-03-20T08:20:26.348Z,11.00
2019-03-20T08:22:54.857Z,8.97
2019-03-20T08:25:24.670Z,10.20
2019-03-20T08:27:53.093Z,12.73
2019-03-20T08:30:20.741Z,9.83
2019-03-20T08:32:48.412Z,13.17
2019-03-20T08:35:16.455Z,13.43
2019-03-20T08:37:44.421Z,8.70
2019-03-20T08:40:12.502Z,10.63
2019-03-20T08:42:40.180Z,13.80
2019-03-20T08:45:08.367Z,9.93
2019-03-20T08:47:36.053Z,9.30
2019-03-20T08:50:04.270Z,8.00
2019-03-20T08:52:31.965Z,13.60
2019-03-20T08:54:59.954Z,9.07
2019-03-20T08:57:28.241Z,5.90
2019-03-20T08:59:55.902Z,8.67
2019-03-20T09:02:24.205Z,8.70
2019-03-20T09:04:52.179Z,9.93
2019-03-20T09:07:19.838Z,7.03
2019-03-20T09:09:47.790Z,11.60
2019-03-20T09:12:16.011Z,6.83
2019-03-20T09:14:43.669Z,4.57
2019-03-20T09:17:12.584Z,9.50
2019-03-20T09:19:40.912Z,6.17
2019-03-20T09:22:09.298Z,5.93
2019-03-20T09:24:37.574Z,10.83
2019-03-20T09:27:05.911Z,9.93
2019-03-20T09:29:36.297Z,7.00
2019-03-20T09:32:03.532Z,6.50
2019-03-20T09:34:31.482Z,5.70
2019-03-20T09:36:59.461Z,10.30
2019-03-20T09:39:27.125Z,8.37
2019-03-20T09:41:54.875Z,8.07
2019-03-20T09:44:22.542Z,6.27
2019-03-20T09:46:50.172Z,5.50
2019-03-20T09:49:17.840Z,8.63
2019-03-20T09:51:46.158Z,9.53
2019-03-20T09:54:14.104Z,6.43
2019-03-20T09:56:42.030Z,5.70
2019-03-20T09:59:10.029Z,5.20
2019-03-20T10:01:38.038Z,6.70
2019-03-20T10:04:05.700Z,5.57
2019-03-20T10:06:33.701Z,5.90
2019-03-20T10:09:02.060Z,5.37
2019-03-20T10:11:30.202Z,4.77
2019-03-20T10:13:58.142Z,10.90
2019-03-20T10:16:26.050Z,4.60
2019-03-20T10:18:54.326Z,7.10
2019-03-20T10:21:21.995Z,4.50
2019-03-20T10:23:50.233Z,5.37
2019-03-20T10:26:18.197Z,8.33
2019-03-20T10:28:46.132Z,5.07
2019-03-20T10:31:14.174Z,7.60
2019-03-20T10:33:41.815Z,6.50
2019-03-20T10:36:10.087Z,15.43
2019-03-20T10:38:37.777Z,5.73
2019-03-20T10:41:05.472Z,6.10
2019-03-20T10:43:34.018Z,9.10
2019-03-20T10:46:02.290Z,4.37
2019-03-20T10:48:30.676Z,5.90
2019-03-20T10:50:58.646Z,9.07
2019-03-20T10:53:26.663Z,14.70
2019-03-20T10:55:54.592Z,8.63
2019-03-20T10:58:23.197Z,8.63
2019-03-20T11:00:51.469Z,12.77
2019-03-20T11:03:19.545Z,9.00
2019-03-20T11:05:52.774Z,12.10
2019-03-20T11:08:19.526Z,7.17
2019-03-20T11:10:47.180Z,11.57
2019-03-20T11:13:15.385Z,8.27
2019-03-20T11:15:43.576Z,11.50
2019-03-20T11:18:11.668Z,11.53
2019-03-20T11:20:39.557Z,10.90
2019-03-20T11:23:07.505Z,7.10
2019-03-20T11:25:35.642Z,7.40
2019-03-20T11:28:03.574Z,7.37
2019-03-20T11:30:31.535Z,7.77
2019-03-20T11:32:59.756Z,7.90
2019-03-20T11:35:27.678Z,8.47
2019-03-20T11:37:55.993Z,8.23
2019-03-20T11:40:25.047Z,10.80
2019-03-20T11:42:52.937Z,6.93
2019-03-20T11:45:23.290Z,6.10
2019-03-20T11:47:50.259Z,6.83
2019-03-20T11:50:19.606Z,7.37
2019-03-20T11:52:47.534Z,6.73
2019-03-20T11:55:15.475Z,7.53
2019-03-20T11:57:43.398Z,6.13
2019-03-20T12:00:12.133Z,9.63
2019-03-20T12:02:40.035Z,6.73
2019-03-20T12:05:07.723Z,5.57
2019-03-20T12:07:35.689Z,7.43
2019-03-20T12:10:03.449Z,6.17
2019-03-20T12:12:31.081Z,6.53
2019-03-20T12:14:58.730Z,5.40
2019-03-20T12:17:26.802Z,5.00
2019-03-20T12:19:55.363Z,4.67
2019-03-20T12:22:23.545Z,4.50
2019-03-20T12:24:51.875Z,5.83
2019-03-20T12:27:19.546Z,5.77
2019-03-20T12:29:47.473Z,4.07
2019-03-20T12:32:15.805Z,5.80
2019-03-20T12:34:44.297Z,10.53
2019-03-20T12:37:12.910Z,3.30
2019-03-20T12:39:52.639Z,3.13
2019-03-20T12:42:11.181Z,4.10
2019-03-20T12:44:39.159Z,4.80
2019-03-20T12:47:07.159Z,3.20
2019-03-20T12:49:35.697Z,3.67
2019-03-20T12:52:03.642Z,3.70
2019-03-20T12:54:31.537Z,6.87
2019-03-20T12:56:59.558Z,6.30
2019-03-20T12:59:27.787Z,3.00
2019-03-20T13:01:56.071Z,3.23
2019-03-20T13:04:23.985Z,6.40
2019-03-20T13:06:52.318Z,4.93
2019-03-20T13:09:20.335Z,5.17
2019-03-20T13:11:48.234Z,7.67
2019-03-20T13:14:16.837Z,5.93
2019-03-20T13:16:44.944Z,3.00
2019-03-20T13:19:12.936Z,3.07
2019-03-20T13:21:40.633Z,6.67
2019-03-20T13:24:08.597Z,3.30
2019-03-20T13:26:36.224Z,4.27
2019-03-20T13:29:03.901Z,3.43
2019-03-20T13:31:31.867Z,3.33
2019-03-20T13:34:00.173Z,3.70
2019-03-20T13:36:28.567Z,3.47
2019-03-20T13:38:56.687Z,3.43
2019-03-20T13:41:24.350Z,3.40
2019-03-20T13:43:52.635Z,3.77
2019-03-20T13:46:20.572Z,4.50
2019-03-20T13:48:48.586Z,3.83
2019-03-20T13:51:16.782Z,6.70
2019-03-20T13:53:45.277Z,4.27
2019-03-20T13:56:13.202Z,5.90
2019-03-20T13:58:41.222Z,5.17
2019-03-20T14:01:09.243Z,4.77
2019-03-20T14:03:37.450Z,5.97
2019-03-20T14:06:05.833Z,6.10
2019-03-20T14:08:34.204Z,3.73
2019-03-20T14:11:02.210Z,4.97
2019-03-20T14:13:30.453Z,3.97
2019-03-20T14:15:58.102Z,3.90
2019-03-20T14:18:26.029Z,5.20
2019-03-20T14:20:54.017Z,5.07
2019-03-20T14:23:21.970Z,6.37
2019-03-20T14:25:49.986Z,3.80
2019-03-20T14:28:17.667Z,4.37
2019-03-20T14:30:46.002Z,5.00
2019-03-20T14:33:14.005Z,3.50
2019-03-20T14:35:41.940Z,3.40
2019-03-20T14:38:10.101Z,3.70
2019-03-20T14:40:38.161Z,7.07
2019-03-20T14:43:06.286Z,4.47
2019-03-20T14:45:34.305Z,4.27
2019-03-20T14:48:02.551Z,4.87
2019-03-20T14:50:30.613Z,7.27
2019-03-20T14:52:58.634Z,4.30
2019-03-20T14:55:27.162Z,4.03
2019-03-20T14:57:55.389Z,7.30
2019-03-20T15:00:23.902Z,7.20
2019-03-20T15:02:51.589Z,7.37
2019-03-20T15:05:19.493Z,5.10
2019-03-20T15:07:47.416Z,10.53
2019-03-20T15:10:16.099Z,4.90
2019-03-20T15:12:44.890Z,4.27
2019-03-20T15:15:17.670Z,6.80
2019-03-20T15:17:45.717Z,3.87
2019-03-20T15:20:13.716Z,5.60
2019-03-20T15:22:42.151Z,5.00
2019-03-20T15:25:10.077Z,7.10
2019-03-20T15:27:38.004Z,4.03
2019-03-20T15:30:07.140Z,3.60
2019-03-20T15:32:34.846Z,3.57
2019-03-20T15:35:03.166Z,3.17
2019-03-20T15:37:31.440Z,3.77
2019-03-20T15:39:59.418Z,3.30
2019-03-20T15:42:27.333Z,3.17
2019-03-20T15:44:55.412Z,3.17
2019-03-20T15:47:23.333Z,4.23
2019-03-20T15:49:51.425Z,4.23
2019-03-20T15:52:20.174Z,4.77
2019-03-20T15:54:48.321Z,5.20
2019-03-20T15:57:15.970Z,5.17
2019-03-20T15:59:43.706Z,7.40
2019-03-20T16:02:11.765Z,10.00
2019-03-20T16:04:40.096Z,4.80
2019-03-20T16:07:08.602Z,5.63
2019-03-20T16:09:36.270Z,4.40
2019-03-20T16:12:04.216Z,5.07
2019-03-20T16:14:31.861Z,4.93
2019-03-20T16:16:59.990Z,3.93
2019-03-20T16:19:28.441Z,6.87
2019-03-20T16:21:56.106Z,3.50
2019-03-20T16:24:24.390Z,3.60
2019-03-20T16:26:52.737Z,4.37
2019-03-20T16:29:20.732Z,4.97
2019-03-20T16:31:48.700Z,5.43
2019-03-20T16:34:16.346Z,2.60
2019-03-20T16:36:44.950Z,2.53
2019-03-20T16:39:12.949Z,2.70
2019-03-20T16:41:41.457Z,2.33
2019-03-20T16:44:09.338Z,3.97
2019-03-20T16:46:37.313Z,2.60
2019-03-20T16:49:04.977Z,2.80
2019-03-20T16:51:32.964Z,2.60
2019-03-20T16:54:00.928Z,2.70
2019-03-20T16:56:28.555Z,2.20
2019-03-20T16:58:56.853Z,7.03
2019-03-20T17:01:25.533Z,2.23
2019-03-20T17:03:53.210Z,2.10
2019-03-20T17:06:21.130Z,4.13
2019-03-20T17:08:49.482Z,1.87
2019-03-20T17:11:26.342Z,2.90
2019-03-20T17:13:47.217Z,2.47
2019-03-20T17:16:14.870Z,2.00
2019-03-20T17:18:42.822Z,3.23
2019-03-20T17:21:10.465Z,1.77
2019-03-20T17:23:38.445Z,2.37
2019-03-20T17:26:07.001Z,3.00
2019-03-20T17:28:34.975Z,1.93
2019-03-20T17:31:02.993Z,2.00
2019-03-20T17:33:31.029Z,1.97
2019-03-20T17:35:59.276Z,1.97
2019-03-20T17:38:27.176Z,2.57
2019-03-20T17:40:55.162Z,2.53
2019-03-20T17:43:22.814Z,3.97
2019-03-20T17:45:50.732Z,1.80
2019-03-20T17:48:18.378Z,1.83
2019-03-20T17:50:46.380Z,2.30
2019-03-20T17:53:14.129Z,2.40
2019-03-20T17:55:42.090Z,6.03
2019-03-20T17:58:10.030Z,1.60
2019-03-20T18:00:40.008Z,4.67
2019-03-20T18:03:07.762Z,4.90
2019-03-20T18:05:35.815Z,3.60
2019-03-20T18:08:04.007Z,2.03
2019-03-20T18:10:33.262Z,3.00
2019-03-20T18:13:01.769Z,7.57
2019-03-20T18:15:29.964Z,1.80
2019-03-20T18:17:57.872Z,2.33
2019-03-20T18:20:25.886Z,2.00
2019-03-20T18:22:53.894Z,2.03
2019-03-20T18:25:21.901Z,5.13
2019-03-20T18:27:49.923Z,2.07
2019-03-20T18:30:18.958Z,1.77
2019-03-20T18:32:47.264Z,2.10
2019-03-20T18:35:14.918Z,2.57
2019-03-20T18:37:43.121Z,1.70
2019-03-20T18:40:11.489Z,1.90
2019-03-20T18:42:39.575Z,2.00
2019-03-20T18:45:07.805Z,3.60
2019-03-20T18:47:35.453Z,1.70
2019-03-20T18:50:03.127Z,1.93
2019-03-20T18:52:31.089Z,2.03
2019-03-20T18:54:58.807Z,3.33
2019-03-20T18:57:26.698Z,1.83
2019-03-20T18:59:55.049Z,2.10
2019-03-20T19:02:22.986Z,2.40
2019-03-20T19:04:51.306Z,3.63
2019-03-20T19:07:19.560Z,1.83
2019-03-20T19:09:47.954Z,2.27
2019-03-20T19:12:16.017Z,2.30
2019-03-20T19:14:43.964Z,3.03
2019-03-20T19:17:12.379Z,2.70
2019-03-20T19:19:40.298Z,8.30
2019-03-20T19:22:08.642Z,3.43
2019-03-20T19:24:36.303Z,2.90
2019-03-20T19:27:03.954Z,6.67
2019-03-20T19:29:32.250Z,4.07
2019-03-20T19:31:59.891Z,5.77
2019-03-20T19:34:27.654Z,7.70
2019-03-20T19:36:55.395Z,5.30
2019-03-20T19:39:23.370Z,9.10
2019-03-20T19:41:51.417Z,7.10
2019-03-20T19:44:19.472Z,6.63
2019-03-20T19:46:47.122Z,6.80
2019-03-20T19:49:14.753Z,8.83
2019-03-20T19:51:43.145Z,9.10
2019-03-20T19:54:11.463Z,7.97
2019-03-20T19:56:39.773Z,9.87
2019-03-20T19:59:08.313Z,8.43
2019-03-20T20:01:36.489Z,9.77
2019-03-20T20:04:04.137Z,9.70
2019-03-20T20:06:32.366Z,10.73
2019-03-20T20:09:00.480Z,7.93
2019-03-20T20:11:29.314Z,12.13
2019-03-20T20:13:56.970Z,9.67
2019-03-20T20:16:25.242Z,9.50
2019-03-20T20:18:53.504Z,8.80
2019-03-20T20:21:21.835Z,12.57
2019-03-20T20:23:49.755Z,12.53
2019-03-20T20:26:17.741Z,13.73
2019-03-20T20:28:45.943Z,17.57
2019-03-20T20:31:13.975Z,10.87
2019-03-20T20:33:42.186Z,14.37
2019-03-20T20:36:10.104Z,9.97
2019-03-20T20:38:38.441Z,11.57
2019-03-20T20:41:06.106Z,10.40
2019-03-20T20:43:33.774Z,12.00
2019-03-20T20:46:02.230Z,11.40
2019-03-20T20:48:30.436Z,11.33
2019-03-20T20:50:58.102Z,16.77
2019-03-20T20:53:25.773Z,18.43
2019-03-20T20:55:54.308Z,9.07
2019-03-20T20:58:22.259Z,10.60
2019-03-20T21:00:50.196Z,6.37
2019-03-20T21:03:18.837Z,11.57
2019-03-20T21:05:47.217Z,10.87
2019-03-20T21:08:14.868Z,8.43
2019-03-20T21:10:43.373Z,7.60
2019-03-20T21:13:11.445Z,8.20
2019-03-20T21:15:40.526Z,6.07
2019-03-20T21:18:33.809Z,6.70
2019-03-20T21:21:02.090Z,5.77
2019-03-20T21:23:38.504Z,5.03
2019-03-20T21:26:06.713Z,5.27
2019-03-20T21:28:56.340Z,8.00
2019-03-20T21:31:52.277Z,5.87
2019-03-20T21:34:55.202Z,5.53
2019-03-20T21:37:50.902Z,5.87
2019-03-20T21:40:20.426Z,7.50
2019-03-20T21:43:10.512Z,6.07
2019-03-20T21:45:56.187Z,5.77
2019-03-20T21:48:24.477Z,6.47
2019-03-20T21:51:11.731Z,5.33
2019-03-20T21:54:11.145Z,6.60
2019-03-20T21:56:40.985Z,9.13
2019-03-20T21:59:23.550Z,9.07
2019-03-20T22:02:01.441Z,5.70
2019-03-20T22:04:29.679Z,7.67
2019-03-20T22:07:05.731Z,5.97
2019-03-20T22:09:41.760Z,7.87
2019-03-20T22:12:40.166Z,6.07
2019-03-20T22:15:10.464Z,4.33
2019-03-20T22:18:09.893Z,7.00
2019-03-20T22:21:02.650Z,4.93
2019-03-20T22:23:46.617Z,7.00
2019-03-20T22:26:32.059Z,4.47
2019-03-20T22:29:24.708Z,5.00
2019-03-20T22:31:59.658Z,5.23
2019-03-20T22:34:58.355Z,5.57
2019-03-20T22:37:26.718Z,4.33
2019-03-20T22:40:16.990Z,6.23
2019-03-20T22:42:56.319Z,5.87
2019-03-20T22:45:58.798Z,7.37
2019-03-20T22:48:48.507Z,11.27
2019-03-20T22:51:29.575Z,7.17
2019-03-20T22:54:28.849Z,8.53
2019-03-20T22:57:02.961Z,7.77
2019-03-20T22:59:31.980Z,7.00
2019-03-20T23:02:11.012Z,6.07
2019-03-20T23:04:41.085Z,7.23
2019-03-20T23:07:10.649Z,8.60
2019-03-20T23:09:39.350Z,10.63
2019-03-20T23:12:09.185Z,5.23
2019-03-20T23:14:37.473Z,8.60
2019-03-20T23:17:05.487Z,5.00
2019-03-20T23:19:34.057Z,5.60
2019-03-20T23:22:02.701Z,6.13
2019-03-20T23:24:30.890Z,5.23
2019-03-20T23:26:59.740Z,5.33
2019-03-20T23:29:28.408Z,5.70
2019-03-20T23:31:56.406Z,4.57
2019-03-20T23:34:24.997Z,7.03
2019-03-20T23:36:53.519Z,4.70
2019-03-20T23:39:21.454Z,5.53
2019-03-20T23:41:49.677Z,6.30
2019-03-20T23:44:18.300Z,7.53
2019-03-20T23:46:46.941Z,5.30
2019-03-20T23:49:15.985Z,7.67
2019-03-20T23:51:44.508Z,5.40
2019-03-20T23:54:13.661Z,9.97
2019-03-20T23:56:41.590Z,7.90
2019-03-20T23:59:09.530Z,8.17
